sensor_id;sensor_type;location;lat;lon;timestamp;pressure;altitude;pressure_sealevel;temperature;humidity
61018;BME280;48171;51.550;5.434;2022-07-23T00:00:59;101864.56;;;17.27;76.93
61018;BME280;48171;51.550;5.434;2022-07-23T00:03:25;101856.63;;;17.24;77.15
61018;BME280;48171;51.550;5.434;2022-07-23T00:05:50;101863.91;;;17.17;77.20
61018;BME280;48171;51.550;5.434;2022-07-23T00:08:15;101873.84;;;17.07;77.22
61018;BME280;48171;51.550;5.434;2022-07-23T00:10:41;101867.66;;;17.05;77.34
61018;BME280;48171;51.550;5.434;2022-07-23T00:13:06;101866.72;;;17.06;78.01
61018;BME280;48171;51.550;5.434;2022-07-23T00:15:32;101867.63;;;17.07;78.05
61018;BME280;48171;51.550;5.434;2022-07-23T00:17:57;101867.78;;;16.97;76.12
61018;BME280;48171;51.550;5.434;2022-07-23T00:20:22;101865.13;;;16.96;76.85
61018;BME280;48171;51.550;5.434;2022-07-23T00:22:53;101867.81;;;16.96;77.70
61018;BME280;48171;51.550;5.434;2022-07-23T00:25:22;101866.00;;;16.96;77.62
61018;BME280;48171;51.550;5.434;2022-07-23T00:27:48;101855.38;;;16.95;77.72
61018;BME280;48171;51.550;5.434;2022-07-23T00:30:13;101863.44;;;16.90;76.71
61018;BME280;48171;51.550;5.434;2022-07-23T00:32:49;101866.19;;;16.87;77.05
61018;BME280;48171;51.550;5.434;2022-07-23T00:35:16;101863.63;;;16.78;77.38
61018;BME280;48171;51.550;5.434;2022-07-23T00:37:41;101860.16;;;16.74;77.79
61018;BME280;48171;51.550;5.434;2022-07-23T00:40:08;101861.03;;;16.73;77.79
61018;BME280;48171;51.550;5.434;2022-07-23T00:42:34;101865.53;;;16.68;77.93
61018;BME280;48171;51.550;5.434;2022-07-23T00:44:59;101856.75;;;16.65;78.05
61018;BME280;48171;51.550;5.434;2022-07-23T00:47:24;101864.75;;;16.65;78.80
61018;BME280;48171;51.550;5.434;2022-07-23T00:49:50;101859.41;;;16.63;78.77
61018;BME280;48171;51.550;5.434;2022-07-23T00:52:15;101854.13;;;16.60;79.12
61018;BME280;48171;51.550;5.434;2022-07-23T00:54:41;101861.38;;;16.52;77.16
61018;BME280;48171;51.550;5.434;2022-07-23T00:57:06;101853.44;;;16.49;78.00
61018;BME280;48171;51.550;5.434;2022-07-23T00:59:31;101854.31;;;16.48;79.20
61018;BME280;48171;51.550;5.434;2022-07-23T01:01:57;101858.78;;;16.47;78.89
61018;BME280;48171;51.550;5.434;2022-07-23T01:04:22;101855.22;;;16.47;79.39
61018;BME280;48171;51.550;5.434;2022-07-23T01:06:48;101849.97;;;16.42;79.18
61018;BME280;48171;51.550;5.434;2022-07-23T01:09:13;101850.88;;;16.41;78.10
61018;BME280;48171;51.550;5.434;2022-07-23T01:11:39;101855.50;;;16.28;76.84
61018;BME280;48171;51.550;5.434;2022-07-23T01:16:35;101844.94;;;16.20;79.07
61018;BME280;48171;51.550;5.434;2022-07-23T01:19:00;101852.97;;;16.19;78.62
61018;BME280;48171;51.550;5.434;2022-07-23T01:21:26;101850.41;;;16.11;78.64
61018;BME280;48171;51.550;5.434;2022-07-23T01:23:51;101853.91;;;16.13;79.13
61018;BME280;48171;51.550;5.434;2022-07-23T01:26:16;101846.84;;;16.14;79.82
61018;BME280;48171;51.550;5.434;2022-07-23T01:28:42;101849.50;;;16.14;78.96
61018;BME280;48171;51.550;5.434;2022-07-23T01:31:07;101846.94;;;16.06;78.04
61018;BME280;48171;51.550;5.434;2022-07-23T01:33:33;101847.81;;;16.05;78.43
61018;BME280;48171;51.550;5.434;2022-07-23T01:35:58;101845.16;;;16.04;78.95
61018;BME280;48171;51.550;5.434;2022-07-23T01:38:23;101846.09;;;16.03;78.78
61018;BME280;48171;51.550;5.434;2022-07-23T01:40:49;101846.09;;;16.03;79.46
61018;BME280;48171;51.550;5.434;2022-07-23T01:43:14;101848.75;;;16.01;78.58
61018;BME280;48171;51.550;5.434;2022-07-23T01:45:39;101844.47;;;15.91;77.42
61018;BME280;48171;51.550;5.434;2022-07-23T01:48:05;101851.69;;;15.81;78.15
61018;BME280;48171;51.550;5.434;2022-07-23T01:50:31;101849.94;;;15.78;78.41
61018;BME280;48171;51.550;5.434;2022-07-23T01:52:56;101842.88;;;15.77;79.64
61018;BME280;48171;51.550;5.434;2022-07-23T01:55:21;101845.47;;;15.80;80.15
61018;BME280;48171;51.550;5.434;2022-07-23T01:57:46;101835.69;;;15.81;79.96
61018;BME280;48171;51.550;5.434;2022-07-23T02:00:12;101842.81;;;15.79;79.60
61018;BME280;48171;51.550;5.434;2022-07-23T02:02:37;101842.88;;;15.76;78.14
61018;BME280;48171;51.550;5.434;2022-07-23T02:05:03;101838.47;;;15.72;77.72
61018;BME280;48171;51.550;5.434;2022-07-23T02:07:28;101836.69;;;15.71;77.51
61018;BME280;48171;51.550;5.434;2022-07-23T02:09:53;101835.81;;;15.69;77.80
61018;BME280;48171;51.550;5.434;2022-07-23T02:12:19;101829.75;;;15.56;76.48
61018;BME280;48171;51.550;5.434;2022-07-23T02:14:44;101836.06;;;15.49;77.30
61018;BME280;48171;51.550;5.434;2022-07-23T02:17:09;101829.06;;;15.40;77.95
61018;BME280;48171;51.550;5.434;2022-07-23T02:19:35;101827.31;;;15.37;77.84
61018;BME280;48171;51.550;5.434;2022-07-23T02:22:00;101821.13;;;15.35;77.13
61018;BME280;48171;51.550;5.434;2022-07-23T02:24:26;101832.72;;;15.28;77.54
61018;BME280;48171;51.550;5.434;2022-07-23T02:26:51;101828.34;;;15.26;78.04
61018;BME280;48171;51.550;5.434;2022-07-23T02:29:16;101823.06;;;15.19;79.33
61018;BME280;48171;51.550;5.434;2022-07-23T02:31:41;101824.88;;;15.14;79.58
61018;BME280;48171;51.550;5.434;2022-07-23T02:34:07;101828.44;;;15.15;79.98
61018;BME280;48171;51.550;5.434;2022-07-23T02:36:32;101823.09;;;15.16;80.79
61018;BME280;48171;51.550;5.434;2022-07-23T02:38:58;101823.06;;;15.18;80.54
61018;BME280;48171;51.550;5.434;2022-07-23T02:41:23;101825.72;;;15.19;79.87
61018;BME280;48171;51.550;5.434;2022-07-23T02:43:49;101830.19;;;15.17;80.25
61018;BME280;48171;51.550;5.434;2022-07-23T02:46:14;101842.59;;;15.20;79.49
61018;BME280;48171;51.550;5.434;2022-07-23T02:48:40;101838.19;;;15.17;78.71
61018;BME280;48171;51.550;5.434;2022-07-23T02:51:05;101839.09;;;15.15;79.61
61018;BME280;48171;51.550;5.434;2022-07-23T02:53:30;101839.97;;;15.15;80.68
61018;BME280;48171;51.550;5.434;2022-07-23T02:55:56;101843.53;;;15.14;81.41
61018;BME280;48171;51.550;5.434;2022-07-23T02:58:21;101839.97;;;15.15;81.14
61018;BME280;48171;51.550;5.434;2022-07-23T03:00:46;101837.31;;;15.15;81.68
61018;BME280;48171;51.550;5.434;2022-07-23T03:03:12;101846.19;;;15.16;81.76
61018;BME280;48171;51.550;5.434;2022-07-23T03:05:37;101844.44;;;15.15;81.61
61018;BME280;48171;51.550;5.434;2022-07-23T03:08:02;101840.84;;;15.16;81.38
61018;BME280;48171;51.550;5.434;2022-07-23T03:10:28;101845.31;;;15.15;81.29
61018;BME280;48171;51.550;5.434;2022-07-23T03:12:53;101847.09;;;15.13;81.71
61018;BME280;48171;51.550;5.434;2022-07-23T03:15:18;101852.41;;;15.13;82.12
61018;BME280;48171;51.550;5.434;2022-07-23T03:17:43;101847.97;;;15.15;81.88
61018;BME280;48171;51.550;5.434;2022-07-23T03:20:09;101850.63;;;15.14;81.76
61018;BME280;48171;51.550;5.434;2022-07-23T03:22:35;101841.78;;;15.13;82.09
61018;BME280;48171;51.550;5.434;2022-07-23T03:25:00;101854.16;;;15.14;81.91
61018;BME280;48171;51.550;5.434;2022-07-23T03:27:28;101850.63;;;15.14;82.26
61018;BME280;48171;51.550;5.434;2022-07-23T03:29:55;101850.69;;;15.09;82.08
61018;BME280;48171;51.550;5.434;2022-07-23T03:32:21;101849.81;;;15.07;81.94
61018;BME280;48171;51.550;5.434;2022-07-23T03:34:47;101857.81;;;15.07;81.78
61018;BME280;48171;51.550;5.434;2022-07-23T03:37:12;101860.47;;;15.06;82.00
61018;BME280;48171;51.550;5.434;2022-07-23T03:39:38;101860.47;;;15.07;82.26
61018;BME280;48171;51.550;5.434;2022-07-23T03:42:04;101855.16;;;15.06;81.96
61018;BME280;48171;51.550;5.434;2022-07-23T03:44:29;101855.16;;;15.04;82.00
61018;BME280;48171;51.550;5.434;2022-07-23T03:46:54;101855.16;;;15.06;82.22
61018;BME280;48171;51.550;5.434;2022-07-23T03:49:20;101856.94;;;15.02;82.43
61018;BME280;48171;51.550;5.434;2022-07-23T03:51:45;101853.41;;;15.03;82.02
61018;BME280;48171;51.550;5.434;2022-07-23T03:54:10;101854.28;;;15.02;82.51
61018;BME280;48171;51.550;5.434;2022-07-23T03:56:36;101855.19;;;15.01;82.22
61018;BME280;48171;51.550;5.434;2022-07-23T03:59:01;101857.88;;;15.01;82.68
61018;BME280;48171;51.550;5.434;2022-07-23T04:01:27;101853.44;;;14.98;83.02
61018;BME280;48171;51.550;5.434;2022-07-23T04:03:52;101861.41;;;15.00;82.76
61018;BME280;48171;51.550;5.434;2022-07-23T04:06:18;101859.66;;;14.97;83.21
61018;BME280;48171;51.550;5.434;2022-07-23T04:08:43;101864.06;;;14.98;82.57
61018;BME280;48171;51.550;5.434;2022-07-23T04:11:08;101863.19;;;14.96;81.56
61018;BME280;48171;51.550;5.434;2022-07-23T04:13:33;101868.63;;;14.89;80.32
61018;BME280;48171;51.550;5.434;2022-07-23T04:15:59;101870.41;;;14.85;80.41
61018;BME280;48171;51.550;5.434;2022-07-23T04:18:24;101872.22;;;14.83;80.85
61018;BME280;48171;51.550;5.434;2022-07-23T04:20:53;101880.19;;;14.83;81.32
61018;BME280;48171;51.550;5.434;2022-07-23T04:23:18;101875.75;;;14.84;81.92
61018;BME280;48171;51.550;5.434;2022-07-23T04:25:44;101881.06;;;14.85;82.20
61018;BME280;48171;51.550;5.434;2022-07-23T04:28:09;101881.06;;;14.84;82.60
61018;BME280;48171;51.550;5.434;2022-07-23T04:30:34;101880.16;;;14.86;82.94
61018;BME280;48171;51.550;5.434;2022-07-23T04:32:59;101873.94;;;14.84;83.35
61018;BME280;48171;51.550;5.434;2022-07-23T04:35:25;101875.75;;;14.84;83.22
61018;BME280;48171;51.550;5.434;2022-07-23T04:37:50;101884.59;;;14.87;83.46
61018;BME280;48171;51.550;5.434;2022-07-23T04:40:15;101891.69;;;14.87;81.96
61018;BME280;48171;51.550;5.434;2022-07-23T04:42:41;101891.69;;;14.84;82.87
61018;BME280;48171;51.550;5.434;2022-07-23T04:45:06;101892.56;;;14.84;83.19
61018;BME280;48171;51.550;5.434;2022-07-23T04:47:32;101895.25;;;14.84;82.54
61018;BME280;48171;51.550;5.434;2022-07-23T04:49:57;101897.03;;;14.85;83.26
61018;BME280;48171;51.550;5.434;2022-07-23T04:52:23;101895.22;;;14.86;83.64
61018;BME280;48171;51.550;5.434;2022-07-23T04:54:49;101900.50;;;14.90;83.57
61018;BME280;48171;51.550;5.434;2022-07-23T04:57:14;101902.28;;;14.91;83.62
61018;BME280;48171;51.550;5.434;2022-07-23T04:59:39;101899.63;;;14.93;83.81
61018;BME280;48171;51.550;5.434;2022-07-23T05:02:05;101898.72;;;14.95;83.95
61018;BME280;48171;51.550;5.434;2022-07-23T05:04:30;101898.72;;;14.97;84.23
61018;BME280;48171;51.550;5.434;2022-07-23T05:06:56;101899.59;;;14.97;84.44
61018;BME280;48171;51.550;5.434;2022-07-23T05:09:21;101899.53;;;15.00;84.47
61018;BME280;48171;51.550;5.434;2022-07-23T05:11:47;101896.00;;;15.02;84.53
61018;BME280;48171;51.550;5.434;2022-07-23T05:14:12;101900.41;;;15.04;84.53
61018;BME280;48171;51.550;5.434;2022-07-23T05:16:38;101907.47;;;15.07;84.61
61018;BME280;48171;51.550;5.434;2022-07-23T05:19:03;101903.06;;;15.07;84.69
61018;BME280;48171;51.550;5.434;2022-07-23T05:21:28;101900.34;;;15.09;84.76
61018;BME280;48171;51.550;5.434;2022-07-23T05:23:54;101903.91;;;15.11;85.17
61018;BME280;48171;51.550;5.434;2022-07-23T05:26:19;101904.78;;;15.11;85.30
61018;BME280;48171;51.550;5.434;2022-07-23T05:28:44;101905.66;;;15.12;85.90
61018;BME280;48171;51.550;5.434;2022-07-23T05:31:10;101913.63;;;15.15;86.00
61018;BME280;48171;51.550;5.434;2022-07-23T05:33:35;101910.97;;;15.15;86.11
61018;BME280;48171;51.550;5.434;2022-07-23T05:36:04;101911.84;;;15.17;86.00
61018;BME280;48171;51.550;5.434;2022-07-23T05:38:30;101911.81;;;15.18;86.23
61018;BME280;48171;51.550;5.434;2022-07-23T05:40:55;101909.13;;;15.22;86.67
61018;BME280;48171;51.550;5.434;2022-07-23T05:43:21;101909.13;;;15.22;86.74
61018;BME280;48171;51.550;5.434;2022-07-23T05:45:46;101913.53;;;15.24;87.32
61018;BME280;48171;51.550;5.434;2022-07-23T05:48:12;101925.94;;;15.27;86.90
61018;BME280;48171;51.550;5.434;2022-07-23T05:50:37;101919.72;;;15.29;86.72
61018;BME280;48171;51.550;5.434;2022-07-23T05:53:03;101920.59;;;15.31;87.59
61018;BME280;48171;51.550;5.434;2022-07-23T05:55:28;101919.66;;;15.34;87.91
61018;BME280;48171;51.550;5.434;2022-07-23T05:57:56;101932.97;;;15.35;87.77
61018;BME280;48171;51.550;5.434;2022-07-23T06:00:22;101932.94;;;15.38;87.65
61018;BME280;48171;51.550;5.434;2022-07-23T06:02:48;101930.25;;;15.40;87.63
61018;BME280;48171;51.550;5.434;2022-07-23T06:05:13;101938.19;;;15.45;87.74
61018;BME280;48171;51.550;5.434;2022-07-23T06:07:39;101939.97;;;15.47;87.83
61018;BME280;48171;51.550;5.434;2022-07-23T06:10:05;101945.25;;;15.49;88.03
61018;BME280;48171;51.550;5.434;2022-07-23T06:12:30;101939.91;;;15.53;87.64
61018;BME280;48171;51.550;5.434;2022-07-23T06:14:56;101940.78;;;15.54;87.45
61018;BME280;48171;51.550;5.434;2022-07-23T06:17:21;101937.19;;;15.56;87.35
61018;BME280;48171;51.550;5.434;2022-07-23T06:19:47;101946.00;;;15.65;87.74
61018;BME280;48171;51.550;5.434;2022-07-23T06:22:12;101937.94;;;15.69;87.67
61018;BME280;48171;51.550;5.434;2022-07-23T06:24:37;101945.00;;;15.76;87.77
61018;BME280;48171;51.550;5.434;2022-07-23T06:27:03;101943.19;;;15.82;86.76
61018;BME280;48171;51.550;5.434;2022-07-23T06:29:28;101944.00;;;15.87;87.17
61018;BME280;48171;51.550;5.434;2022-07-23T06:31:54;101944.81;;;15.95;87.13
61018;BME280;48171;51.550;5.434;2022-07-23T06:34:19;101951.84;;;16.00;86.59
61018;BME280;48171;51.550;5.434;2022-07-23T06:36:44;101947.31;;;16.07;86.49
61018;BME280;48171;51.550;5.434;2022-07-23T06:39:09;101948.16;;;16.12;86.05
61018;BME280;48171;51.550;5.434;2022-07-23T06:41:35;101945.44;;;16.17;87.28
61018;BME280;48171;51.550;5.434;2022-07-23T06:44:00;101952.47;;;16.23;84.75
61018;BME280;48171;51.550;5.434;2022-07-23T06:46:25;101955.09;;;16.26;83.35
61018;BME280;48171;51.550;5.434;2022-07-23T06:48:50;101957.72;;;16.29;83.54
61018;BME280;48171;51.550;5.434;2022-07-23T06:51:16;101955.91;;;16.32;82.89
61018;BME280;48171;51.550;5.434;2022-07-23T06:53:41;101956.72;;;16.36;83.20
61018;BME280;48171;51.550;5.434;2022-07-23T06:56:06;101956.69;;;16.40;83.47
61018;BME280;48171;51.550;5.434;2022-07-23T06:58:32;101960.22;;;16.43;82.44
61018;BME280;48171;51.550;5.434;2022-07-23T07:00:57;101955.75;;;16.45;82.19
61018;BME280;48171;51.550;5.434;2022-07-23T07:03:23;101951.28;;;16.47;81.58
61018;BME280;48171;51.550;5.434;2022-07-23T07:05:48;101958.31;;;16.52;81.91
61018;BME280;48171;51.550;5.434;2022-07-23T07:08:14;101955.59;;;16.54;81.40
61018;BME280;48171;51.550;5.434;2022-07-23T07:10:40;101958.19;;;16.60;81.86
61018;BME280;48171;51.550;5.434;2022-07-23T07:13:05;101958.16;;;16.62;81.91
61018;BME280;48171;51.550;5.434;2022-07-23T07:15:30;101959.00;;;16.67;82.80
61018;BME280;48171;51.550;5.434;2022-07-23T07:17:56;101953.59;;;16.70;83.72
61018;BME280;48171;51.550;5.434;2022-07-23T07:20:21;101952.66;;;16.74;81.93
61018;BME280;48171;51.550;5.434;2022-07-23T07:22:46;101949.97;;;16.75;81.47
61018;BME280;48171;51.550;5.434;2022-07-23T07:25:11;101948.16;;;16.77;81.54
61018;BME280;48171;51.550;5.434;2022-07-23T07:27:37;101956.13;;;16.82;80.94
61018;BME280;48171;51.550;5.434;2022-07-23T07:30:04;101961.47;;;16.82;80.29
61018;BME280;48171;51.550;5.434;2022-07-23T07:32:30;101963.22;;;16.83;79.78
61018;BME280;48171;51.550;5.434;2022-07-23T07:34:57;101964.97;;;16.86;79.46
61018;BME280;48171;51.550;5.434;2022-07-23T07:37:22;101973.81;;;16.89;79.86
61018;BME280;48171;51.550;5.434;2022-07-23T07:39:48;101972.00;;;16.91;78.97
61018;BME280;48171;51.550;5.434;2022-07-23T07:42:13;101963.06;;;16.94;78.72
61018;BME280;48171;51.550;5.434;2022-07-23T07:44:38;101966.56;;;16.97;78.81
61018;BME280;48171;51.550;5.434;2022-07-23T07:47:03;101963.81;;;17.02;78.84
61018;BME280;48171;51.550;5.434;2022-07-23T07:49:29;101969.16;;;17.04;78.22
61018;BME280;48171;51.550;5.434;2022-07-23T07:51:54;101965.56;;;17.05;78.16
61018;BME280;48171;51.550;5.434;2022-07-23T07:54:19;101962.84;;;17.08;77.13
61018;BME280;48171;51.550;5.434;2022-07-23T07:56:45;101953.94;;;17.09;77.78
61018;BME280;48171;51.550;5.434;2022-07-23T07:59:10;101959.22;;;17.12;77.56
61018;BME280;48171;51.550;5.434;2022-07-23T08:01:36;101967.19;;;17.15;77.37
61018;BME280;48171;51.550;5.434;2022-07-23T08:04:01;101972.47;;;17.16;76.27
61018;BME280;48171;51.550;5.434;2022-07-23T08:06:26;101973.34;;;17.18;76.30
61018;BME280;48171;51.550;5.434;2022-07-23T08:08:52;101976.88;;;17.20;76.60
61018;BME280;48171;51.550;5.434;2022-07-23T08:11:17;101975.06;;;17.23;75.78
61018;BME280;48171;51.550;5.434;2022-07-23T08:13:42;101975.03;;;17.26;75.69
61018;BME280;48171;51.550;5.434;2022-07-23T08:16:09;101982.06;;;17.30;74.79
61018;BME280;48171;51.550;5.434;2022-07-23T08:18:34;101976.66;;;17.33;73.63
61018;BME280;48171;51.550;5.434;2022-07-23T08:21:00;101981.13;;;17.34;74.04
61018;BME280;48171;51.550;5.434;2022-07-23T08:23:25;101989.06;;;17.37;73.76
61018;BME280;48171;51.550;5.434;2022-07-23T08:25:50;101982.81;;;17.39;73.86
61018;BME280;48171;51.550;5.434;2022-07-23T08:28:16;101985.41;;;17.43;74.07
61018;BME280;48171;51.550;5.434;2022-07-23T08:30:42;101991.56;;;17.48;74.03
61018;BME280;48171;51.550;5.434;2022-07-23T08:33:16;101991.47;;;17.54;74.36
61018;BME280;48171;51.550;5.434;2022-07-23T08:35:44;101995.84;;;17.58;75.71
61018;BME280;48171;51.550;5.434;2022-07-23T08:38:12;102004.59;;;17.68;76.54
61018;BME280;48171;51.550;5.434;2022-07-23T08:40:41;102003.53;;;17.76;75.96
61018;BME280;48171;51.550;5.434;2022-07-23T08:43:08;101997.19;;;17.84;74.59
61018;BME280;48171;51.550;5.434;2022-07-23T08:45:37;102006.00;;;17.89;71.35
61018;BME280;48171;51.550;5.434;2022-07-23T08:48:05;102005.06;;;17.91;73.33
61018;BME280;48171;51.550;5.434;2022-07-23T08:50:32;102010.25;;;18.01;72.87
61018;BME280;48171;51.550;5.434;2022-07-23T08:52:59;102010.13;;;18.07;74.73
61018;BME280;48171;51.550;5.434;2022-07-23T08:55:25;102002.91;;;18.10;73.35
61018;BME280;48171;51.550;5.434;2022-07-23T08:57:52;102009.81;;;18.22;75.53
61018;BME280;48171;51.550;5.434;2022-07-23T09:00:19;102000.75;;;18.28;71.31
61018;BME280;48171;51.550;5.434;2022-07-23T09:02:46;102002.47;;;18.32;70.91
61018;BME280;48171;51.550;5.434;2022-07-23T09:05:13;102005.97;;;18.35;70.81
61018;BME280;48171;51.550;5.434;2022-07-23T09:08:08;102009.34;;;18.44;73.22
61018;BME280;48171;51.550;5.434;2022-07-23T09:11:03;101997.66;;;18.49;71.57
61018;BME280;48171;51.550;5.434;2022-07-23T09:23:47;101979.75;;;18.93;70.53
61018;BME280;48171;51.550;5.434;2022-07-23T09:26:32;101980.50;;;18.98;68.79
61018;BME280;48171;51.550;5.434;2022-07-23T09:29:14;101976.72;;;19.07;70.65
61018;BME280;48171;51.550;5.434;2022-07-23T09:36:49;101983.50;;;19.22;69.92
61018;BME280;48171;51.550;5.434;2022-07-23T09:39:16;101990.53;;;19.26;68.36
61018;BME280;48171;51.550;5.434;2022-07-23T09:41:46;101991.31;;;19.31;68.46
61018;BME280;48171;51.550;5.434;2022-07-23T09:44:17;101992.91;;;19.38;68.14
61018;BME280;48171;51.550;5.434;2022-07-23T09:46:45;101998.13;;;19.45;69.44
61018;BME280;48171;51.550;5.434;2022-07-23T09:49:15;101998.78;;;19.53;68.52
61018;BME280;48171;51.550;5.434;2022-07-23T09:51:53;102000.31;;;19.63;68.45
61018;BME280;48171;51.550;5.434;2022-07-23T09:54:27;102002.00;;;19.67;67.25
61018;BME280;48171;51.550;5.434;2022-07-23T09:56:55;101997.53;;;19.68;66.63
61018;BME280;48171;51.550;5.434;2022-07-23T09:59:29;101993.88;;;19.72;67.24
61018;BME280;48171;51.550;5.434;2022-07-23T10:01:57;102005.34;;;19.77;66.61
61018;BME280;48171;51.550;5.434;2022-07-23T10:04:25;101996.28;;;19.81;67.46
61018;BME280;48171;51.550;5.434;2022-07-23T10:06:53;101994.38;;;19.86;65.08
61018;BME280;48171;51.550;5.434;2022-07-23T10:09:44;101997.69;;;19.96;62.27
61018;BME280;48171;51.550;5.434;2022-07-23T10:12:13;102000.03;;;20.08;64.86
61018;BME280;48171;51.550;5.434;2022-07-23T10:14:44;101999.00;;;20.14;62.28
61018;BME280;48171;51.550;5.434;2022-07-23T10:17:09;101992.72;;;20.13;61.21
61018;BME280;48171;51.550;5.434;2022-07-23T10:19:35;101995.38;;;20.15;62.22
61018;BME280;48171;51.550;5.434;2022-07-23T10:22:04;101996.31;;;20.14;61.59
61018;BME280;48171;51.550;5.434;2022-07-23T10:30:26;101988.44;;;20.37;64.88
61018;BME280;48171;51.550;5.434;2022-07-23T10:33:04;101992.75;;;20.43;63.29
61018;BME280;48171;51.550;5.434;2022-07-23T10:35:52;101997.03;;;20.50;61.90
61018;BME280;48171;51.550;5.434;2022-07-23T10:38:27;101997.78;;;20.54;60.61
61018;BME280;48171;51.550;5.434;2022-07-23T10:40:56;102000.38;;;20.58;60.76
61018;BME280;48171;51.550;5.434;2022-07-23T10:43:22;102004.75;;;20.63;59.04
61018;BME280;48171;51.550;5.434;2022-07-23T10:45:48;102002.88;;;20.65;57.60
61018;BME280;48171;51.550;5.434;2022-07-23T10:48:25;101997.31;;;20.71;59.27
61018;BME280;48171;51.550;5.434;2022-07-23T10:51:14;101995.44;;;20.74;60.39
61018;BME280;48171;51.550;5.434;2022-07-23T10:56:15;101990.78;;;20.80;59.13
61018;BME280;48171;51.550;5.434;2022-07-23T10:58:48;101992.28;;;20.88;59.60
61018;BME280;48171;51.550;5.434;2022-07-23T11:01:37;101998.59;;;20.87;58.76
61018;BME280;48171;51.550;5.434;2022-07-23T11:04:04;102004.69;;;20.92;59.46
61018;BME280;48171;51.550;5.434;2022-07-23T11:15:09;101990.56;;;21.14;60.36
61018;BME280;48171;51.550;5.434;2022-07-23T11:20:17;101991.78;;;21.32;61.68
61018;BME280;48171;51.550;5.434;2022-07-23T11:25:09;101981.59;;;21.42;63.92
61018;BME280;48171;51.550;5.434;2022-07-23T11:27:44;101982.28;;;21.48;62.72
61018;BME280;48171;51.550;5.434;2022-07-23T11:35:35;101980.13;;;21.60;56.31
61018;BME280;48171;51.550;5.434;2022-07-23T11:38:13;101979.13;;;21.62;57.79
61018;BME280;48171;51.550;5.434;2022-07-23T11:40:39;101978.16;;;21.63;54.65
61018;BME280;48171;51.550;5.434;2022-07-23T11:43:07;101980.75;;;21.66;55.53
61018;BME280;48171;51.550;5.434;2022-07-23T11:45:38;101978.72;;;21.73;56.95
61018;BME280;48171;51.550;5.434;2022-07-23T11:48:06;101983.78;;;21.82;57.21
61018;BME280;48171;51.550;5.434;2022-07-23T11:50:32;101984.50;;;21.87;57.69
61018;BME280;48171;51.550;5.434;2022-07-23T11:52:58;101981.66;;;21.92;59.23
61018;BME280;48171;51.550;5.434;2022-07-23T11:55:23;101983.22;;;21.97;57.81
61018;BME280;48171;51.550;5.434;2022-07-23T11:57:51;101983.94;;;22.03;57.07
61018;BME280;48171;51.550;5.434;2022-07-23T12:00:24;101985.75;;;22.02;55.99
61018;BME280;48171;51.550;5.434;2022-07-23T12:02:52;101982.03;;;22.06;57.34
61018;BME280;48171;51.550;5.434;2022-07-23T12:05:21;101985.59;;;22.07;55.47
61018;BME280;48171;51.550;5.434;2022-07-23T12:07:49;101978.09;;;22.15;58.22
61018;BME280;48171;51.550;5.434;2022-07-23T12:10:16;101974.47;;;22.16;54.91
61018;BME280;48171;51.550;5.434;2022-07-23T12:12:45;101982.38;;;22.21;56.70
61018;BME280;48171;51.550;5.434;2022-07-23T12:15:13;101985.66;;;22.30;60.57
61018;BME280;48171;51.550;5.434;2022-07-23T12:17:40;101974.75;;;22.33;57.87
61018;BME280;48171;51.550;5.434;2022-07-23T12:20:08;101976.50;;;22.34;54.88
61018;BME280;48171;51.550;5.434;2022-07-23T12:22:43;101970.06;;;22.39;55.45
61018;BME280;48171;51.550;5.434;2022-07-23T12:25:20;101972.13;;;22.32;53.10
61018;BME280;48171;51.550;5.434;2022-07-23T12:28:07;101975.03;;;22.26;54.92
61018;BME280;48171;51.550;5.434;2022-07-23T12:30:34;101966.31;;;22.17;56.66
61018;BME280;48171;51.550;5.434;2022-07-23T12:33:03;101968.81;;;22.24;58.20
61018;BME280;48171;51.550;5.434;2022-07-23T12:35:35;101967.84;;;22.26;58.21
61018;BME280;48171;51.550;5.434;2022-07-23T12:38:05;101962.38;;;22.28;55.75
61018;BME280;48171;51.550;5.434;2022-07-23T12:40:45;101951.22;;;22.39;57.20
61018;BME280;48171;51.550;5.434;2022-07-23T12:43:18;101950.78;;;22.49;56.42
61018;BME280;48171;51.550;5.434;2022-07-23T12:45:52;101953.13;;;22.59;55.25
61018;BME280;48171;51.550;5.434;2022-07-23T12:48:21;101945.63;;;22.67;55.46
61018;BME280;48171;51.550;5.434;2022-07-23T12:50:54;101945.38;;;22.73;55.48
61018;BME280;48171;51.550;5.434;2022-07-23T12:55:49;101951.94;;;22.88;57.04
61018;BME280;48171;51.550;5.434;2022-07-23T12:58:19;101948.81;;;22.99;58.79
61018;BME280;48171;51.550;5.434;2022-07-23T13:00:58;101947.53;;;23.09;59.00
61018;BME280;48171;51.550;5.434;2022-07-23T13:03:44;101954.56;;;23.13;56.93
61018;BME280;48171;51.550;5.434;2022-07-23T13:06:19;101957.34;;;23.10;57.27
61018;BME280;48171;51.550;5.434;2022-07-23T13:08:44;101954.28;;;22.97;53.94
61018;BME280;48171;51.550;5.434;2022-07-23T13:11:09;101949.03;;;22.92;53.41
61018;BME280;48171;51.550;5.434;2022-07-23T13:13:35;101947.88;;;23.00;54.45
61018;BME280;48171;51.550;5.434;2022-07-23T13:16:01;101949.06;;;23.14;55.61
61018;BME280;48171;51.550;5.434;2022-07-23T13:18:27;101957.44;;;23.29;55.74
61018;BME280;48171;51.550;5.434;2022-07-23T13:20:53;101957.44;;;23.29;56.50
61018;BME280;48171;51.550;5.434;2022-07-23T13:23:19;101951.59;;;23.19;55.71
61018;BME280;48171;51.550;5.434;2022-07-23T13:25:45;101951.84;;;23.13;56.68
61018;BME280;48171;51.550;5.434;2022-07-23T13:28:11;101946.25;;;23.17;56.98
61018;BME280;48171;51.550;5.434;2022-07-23T13:30:37;101947.88;;;23.22;53.86
61018;BME280;48171;51.550;5.434;2022-07-23T13:33:03;101953.00;;;23.28;55.60
61018;BME280;48171;51.550;5.434;2022-07-23T13:35:29;101935.25;;;23.22;55.53
61018;BME280;48171;51.550;5.434;2022-07-23T13:37:54;101939.53;;;23.28;52.99